createdAt,value
2024-02-07T00:02:51.104Z,1004.9
2024-02-07T00:07:51.338Z,1004.9
2024-02-07T00:12:51.160Z,1004.8
2024-02-07T00:17:51.222Z,1004.7
2024-02-07T00:22:51.275Z,1004.8
2024-02-07T00:27:51.249Z,1004.8
2024-02-07T00:32:51.280Z,1004.7
2024-02-07T00:37:51.392Z,1004.7
2024-02-07T00:42:51.315Z,1004.6
2024-02-07T00:47:51.381Z,1004.6
2024-02-07T00:57:51.427Z,1004.5
2024-02-07T01:02:51.455Z,1004.4
2024-02-07T01:07:51.596Z,1004.4
2024-02-07T01:12:51.571Z,1004.3
2024-02-07T01:22:51.768Z,1004.3
2024-02-07T01:27:51.730Z,1004.2
2024-02-07T01:32:51.888Z,1004.1
2024-02-07T01:37:51.908Z,1004.1
2024-02-07T01:42:51.885Z,1004.0
2024-02-07T01:47:52.074Z,1004.0
2024-02-07T01:52:52.061Z,1004.1
2024-02-07T01:57:52.073Z,1004.0
2024-02-07T02:02:52.123Z,1004.0
2024-02-07T02:07:52.320Z,1004.0
2024-02-07T02:12:52.244Z,1004.1
2024-02-07T02:17:55.036Z,1004.4
2024-02-07T02:22:52.526Z,1004.5
2024-02-07T02:27:52.496Z,1004.7
2024-02-07T02:32:52.598Z,1004.7
2024-02-07T02:37:52.592Z,1004.7
2024-02-07T02:42:52.594Z,1004.8
2024-02-07T02:47:52.621Z,1004.7
2024-02-07T02:52:52.738Z,1004.8
2024-02-07T02:57:52.554Z,1004.8
2024-02-07T03:02:52.562Z,1004.8
2024-02-07T03:07:52.614Z,1004.8
2024-02-07T03:12:52.452Z,1004.8
2024-02-07T03:17:52.502Z,1004.8
2024-02-07T03:22:52.452Z,1004.7
2024-02-07T03:27:52.312Z,1004.7
2024-02-07T03:52:53.630Z,1004.6
2024-02-07T04:02:51.983Z,1004.6
2024-02-07T04:12:51.935Z,1004.6
2024-02-07T04:17:51.819Z,1004.6
2024-02-07T04:27:51.665Z,1004.6
2024-02-07T04:42:51.448Z,1004.9
2024-02-07T04:47:51.358Z,1004.9
2024-02-07T04:52:51.356Z,1004.8
2024-02-07T04:57:53.195Z,1004.8
2024-02-07T05:02:51.141Z,1004.8
2024-02-07T05:07:51.086Z,1004.9
2024-02-07T05:12:51.002Z,1004.9
2024-02-07T05:17:50.985Z,1005.0
2024-02-07T05:22:50.889Z,1005.0
2024-02-07T05:27:50.797Z,1005.0
2024-02-07T05:32:50.864Z,1005.0
2024-02-07T05:37:54.841Z,1004.9
2024-02-07T05:42:50.645Z,1005.0
2024-02-07T05:47:50.622Z,1005.0
2024-02-07T05:52:50.666Z,1005.0
2024-02-07T05:57:50.517Z,1005.1
2024-02-07T06:02:50.412Z,1005.2
2024-02-07T06:07:50.495Z,1005.1
2024-02-07T06:12:50.323Z,1005.1
2024-02-07T06:22:50.282Z,1005.1
2024-02-07T06:27:50.174Z,1005.1
2024-02-07T06:32:50.175Z,1005.0
2024-02-07T06:37:50.102Z,1005.0
2024-02-07T06:42:49.944Z,1005.0
2024-02-07T06:47:49.946Z,1004.9
2024-02-07T06:52:49.850Z,1005.0
2024-02-07T06:57:49.764Z,1004.9
2024-02-07T07:02:53.482Z,1005.0
2024-02-07T07:07:49.665Z,1005.1
2024-02-07T07:12:49.538Z,1005.1
2024-02-07T07:17:49.479Z,1005.0
2024-02-07T07:22:58.807Z,1005.1
2024-02-07T07:27:49.340Z,1004.9
2024-02-07T07:37:49.192Z,1005.1
2024-02-07T07:42:49.077Z,1005.1
2024-02-07T07:47:49.062Z,1005.1
2024-02-07T07:52:48.982Z,1005.0
2024-02-07T07:57:48.862Z,1005.1
2024-02-07T08:02:48.764Z,1005.1
2024-02-07T08:07:48.896Z,1005.1
2024-02-07T08:12:48.647Z,1005.1
2024-02-07T08:17:48.595Z,1005.1
2024-02-07T08:22:48.532Z,1005.1
2024-02-07T08:32:48.481Z,1005.1
2024-02-07T08:37:50.825Z,1005.1
2024-02-07T08:42:48.180Z,1005.1
2024-02-07T08:47:48.241Z,1005.1
2024-02-07T08:52:48.086Z,1005.1
2024-02-07T09:02:47.954Z,1005.2
2024-02-07T09:07:47.876Z,1005.1
2024-02-07T09:17:47.710Z,1005.1
2024-02-07T09:22:47.634Z,1005.2
2024-02-07T09:27:47.528Z,1005.2
2024-02-07T09:32:47.535Z,1005.3
2024-02-07T09:37:47.490Z,1005.3
2024-02-07T09:42:47.349Z,1005.2
2024-02-07T09:47:47.345Z,1005.1
2024-02-07T10:02:47.312Z,1005.1
2024-02-07T10:07:47.078Z,1005.1
2024-02-07T10:12:46.958Z,1005.1
2024-02-07T10:27:46.842Z,1005.3
2024-02-07T10:32:47.250Z,1005.3
2024-02-07T10:37:46.809Z,1005.1
2024-02-07T10:42:46.631Z,1005.2
2024-02-07T10:47:46.638Z,1005.2
2024-02-07T10:52:46.551Z,1005.2
2024-02-07T11:12:46.250Z,1005.4
2024-02-07T11:17:48.743Z,1005.3
2024-02-07T11:22:46.211Z,1005.3
2024-02-07T11:32:46.101Z,1005.0
2024-02-07T11:37:46.060Z,1004.8
2024-02-07T11:47:45.970Z,1004.3
2024-02-07T11:52:45.889Z,1004.6
2024-02-07T11:57:45.839Z,1004.8
2024-02-07T12:07:45.721Z,1005.0
2024-02-07T12:12:45.637Z,1005.0
2024-02-07T12:22:45.568Z,1004.8
2024-02-07T12:27:45.475Z,1004.5
2024-02-07T12:32:45.581Z,1004.8
2024-02-07T12:37:45.407Z,1005.0
2024-02-07T12:42:45.417Z,1005.1
2024-02-07T12:47:45.296Z,1004.9
2024-02-07T12:57:45.163Z,1004.9
2024-02-07T13:02:45.154Z,1004.9
2024-02-07T13:07:45.232Z,1004.8
2024-02-07T13:12:45.047Z,1004.8
2024-02-07T13:17:45.209Z,1004.8
2024-02-07T13:22:45.048Z,1004.5
2024-02-07T13:27:44.929Z,1004.6
2024-02-07T13:37:44.884Z,1004.6
2024-02-07T13:42:44.856Z,1004.5
2024-02-07T13:47:44.839Z,1004.4
2024-02-07T13:52:44.816Z,1004.5
2024-02-07T13:57:44.860Z,1004.4
2024-02-07T14:02:44.715Z,1004.3
2024-02-07T14:07:44.741Z,1004.4
2024-02-07T14:12:44.611Z,1004.4
2024-02-07T14:17:44.628Z,1004.4
2024-02-07T14:22:44.611Z,1004.3
2024-02-07T14:27:44.472Z,1004.3
2024-02-07T14:32:44.480Z,1004.3
2024-02-07T14:37:44.491Z,1004.2
2024-02-07T14:42:44.380Z,1004.3
2024-02-07T14:47:44.483Z,1004.3
2024-02-07T14:52:44.380Z,1004.4
2024-02-07T14:57:44.314Z,1004.3
2024-02-07T15:02:44.304Z,1004.4
2024-02-07T15:07:44.244Z,1004.3
2024-02-07T15:12:44.215Z,1004.3
2024-02-07T15:17:44.422Z,1004.3
2024-02-07T15:22:44.230Z,1004.3
2024-02-07T15:27:44.261Z,1004.3
2024-02-07T15:37:44.135Z,1004.4
2024-02-07T15:42:44.062Z,1004.2
2024-02-07T15:47:44.124Z,1004.3
2024-02-07T15:52:44.091Z,1004.4
2024-02-07T15:57:44.029Z,1004.3
2024-02-07T16:02:44.066Z,1004.4
2024-02-07T16:07:44.072Z,1004.4
2024-02-07T16:12:43.968Z,1004.3
2024-02-07T16:17:43.903Z,1004.2
2024-02-07T16:22:43.906Z,1004.4
2024-02-07T16:27:43.859Z,1004.4
2024-02-07T16:32:43.881Z,1004.5
2024-02-07T16:37:43.779Z,1004.5
2024-02-07T16:42:43.718Z,1004.4
2024-02-07T16:47:43.965Z,1004.4
2024-02-07T16:52:47.583Z,1004.5
2024-02-07T16:57:45.428Z,1004.4
2024-02-07T17:02:43.514Z,1004.4
2024-02-07T17:07:43.524Z,1004.3
2024-02-07T17:12:43.380Z,1004.3
2024-02-07T17:17:43.335Z,1004.3
2024-02-07T17:22:43.372Z,1004.4
2024-02-07T17:27:43.246Z,1004.4
2024-02-07T17:32:43.286Z,1004.4
2024-02-07T17:37:43.196Z,1004.4
2024-02-07T17:42:43.068Z,1004.2
2024-02-07T17:52:43.027Z,1004.3
2024-02-07T17:57:42.866Z,1004.2
2024-02-07T18:02:42.840Z,1004.2
2024-02-07T18:07:42.814Z,1004.3
2024-02-07T18:12:42.651Z,1004.3
2024-02-07T18:17:42.656Z,1004.2
2024-02-07T18:22:42.682Z,1004.2
2024-02-07T18:27:42.478Z,1004.3
2024-02-07T18:32:42.461Z,1004.3
2024-02-07T18:37:42.465Z,1004.3
2024-02-07T18:47:42.297Z,1004.5
2024-02-07T18:52:42.313Z,1004.5
2024-02-07T18:57:42.053Z,1004.5
2024-02-07T19:02:42.002Z,1004.4
2024-02-07T19:07:41.980Z,1004.5
2024-02-07T19:12:41.923Z,1004.5
2024-02-07T19:17:41.838Z,1004.6
2024-02-07T19:27:42.457Z,1004.5
2024-02-07T19:32:41.644Z,1004.4
2024-02-07T19:37:41.574Z,1004.3
2024-02-07T19:42:41.570Z,1004.3
2024-02-07T19:47:41.501Z,1004.4
2024-02-07T19:52:41.453Z,1004.3
2024-02-07T19:57:41.248Z,1004.4
2024-02-07T20:02:41.196Z,1004.3
2024-02-07T20:07:45.273Z,1004.3
2024-02-07T20:12:41.051Z,1004.3
2024-02-07T20:17:41.024Z,1004.2
2024-02-07T20:22:40.926Z,1004.2
2024-02-07T20:27:40.798Z,1004.2
2024-02-07T20:32:40.765Z,1004.1
2024-02-07T20:37:40.695Z,1004.1
2024-02-07T20:42:40.631Z,1004.0
2024-02-07T20:47:40.606Z,1004.0
2024-02-07T20:52:40.532Z,1004.0
2024-02-07T20:57:40.449Z,1003.9
2024-02-07T21:02:40.357Z,1003.8
2024-02-07T21:07:40.451Z,1003.8
2024-02-07T21:12:40.223Z,1003.7
2024-02-07T21:17:40.171Z,1003.6
2024-02-07T21:22:40.099Z,1003.7
2024-02-07T21:27:39.966Z,1003.7
2024-02-07T21:32:39.945Z,1003.7
2024-02-07T21:37:39.854Z,1003.7
2024-02-07T21:42:39.808Z,1003.7
2024-02-07T21:47:39.794Z,1003.7
2024-02-07T21:52:39.758Z,1003.6
2024-02-07T21:57:39.646Z,1003.7
2024-02-07T22:02:39.644Z,1003.6
2024-02-07T22:12:39.473Z,1003.7
2024-02-07T22:17:39.427Z,1003.7
2024-02-07T22:22:39.346Z,1003.6
2024-02-07T22:27:39.248Z,1003.6
2024-02-07T22:32:39.199Z,1003.4
2024-02-07T22:37:39.112Z,1003.3
2024-02-07T22:42:39.010Z,1003.2
2024-02-07T22:52:38.882Z,1003.1
2024-02-07T22:57:38.749Z,1003.0
2024-02-07T23:02:38.691Z,1003.0
2024-02-07T23:07:38.629Z,1003.0
2024-02-07T23:12:38.554Z,1003.0
2024-02-07T23:17:38.510Z,1002.9
2024-02-07T23:22:38.481Z,1002.8
2024-02-07T23:27:38.354Z,1002.7
2024-02-07T23:32:38.323Z,1002.7
2024-02-07T23:37:38.234Z,1002.6
2024-02-07T23:42:38.089Z,1002.6
2024-02-07T23:47:38.288Z,1002.5
2024-02-07T23:52:38.050Z,1002.4
2024-02-07T23:57:37.997Z,1002.4
